PWSweather.com
Personal Weather Stations
Station Observations
EA5BZ
Nuevo Altabix, ElcheES

Nuevo AltabixElcheES

Lat: 38.276, Lon: -0.671

Elevation: 0

Station Type: Davis Vantage Pro 2

http://meteoelche.es

High Low Average
Temperature 61.3°F16.3°C 49.3°F9.6°C 53.8°F12.1°C
Dew Point 50.5°F10.3°C 43.2°F6.2°C 47.7°F8.7°C
Winds 8.1 mph 13.0 kmh Calm Calm 5.0 mph SW8.0 kmh SW
Wind Gusts 13.0 mph20.9 kmh -- 7.0 mph11.3 kmh
Humidity 89% 65% 80%
Pressure 30.38 in1028.8 mb 30.30 in1026.1 mb -
Precipitation 0.00 in0.0 mm - -
Hour Temp Dew Point Humidity Winds Wind Gusts Pressure Precip Precip Rate Daily Precip Total
12:00 AM 53.7°F12.1°C 50.2°F10.1°C 88% 4.0 mph W6.4 kmh W 6.3 mph10.1 kmh 30.36 in1028.1 mb 0.00 in0.0 mm 0.00 in0.0 mm 0.00 in0.0 mm
12:05 AM 53.8°F12.1°C 50.3°F10.2°C 88% 4.1 mph WSW6.6 kmh WSW 5.4 mph8.7 kmh 30.36 in1028.1 mb 0.00 in0.0 mm 0.00 in0.0 mm 0.00 in0.0 mm
12:10 AM 53.8°F12.1°C 50.3°F10.2°C 88% 4.3 mph WSW6.9 kmh WSW 6.3 mph10.1 kmh 30.36 in1028.1 mb 0.00 in0.0 mm 0.00 in0.0 mm 0.00 in0.0 mm
12:15 AM 53.8°F12.1°C 50.3°F10.2°C 88% 4.3 mph WSW6.9 kmh WSW 5.4 mph8.7 kmh 30.36 in1028.1 mb 0.00 in0.0 mm 0.00 in0.0 mm 0.00 in0.0 mm
12:20 AM 53.8°F12.1°C 50.3°F10.2°C 88% 4.3 mph W6.9 kmh W 5.8 mph9.3 kmh 30.36 in1028.1 mb 0.00 in0.0 mm 0.00 in0.0 mm 0.00 in0.0 mm
12:25 AM 53.9°F12.2°C 50.4°F10.2°C 88% 4.1 mph WSW6.6 kmh WSW 4.7 mph7.6 kmh 30.36 in1028.1 mb 0.00 in0.0 mm 0.00 in0.0 mm 0.00 in0.0 mm
12:30 AM 54.0°F12.2°C 50.2°F10.1°C 87% 3.6 mph WSW5.8 kmh WSW 6.5 mph10.5 kmh 30.36 in1028.1 mb 0.00 in0.0 mm 0.00 in0.0 mm 0.00 in0.0 mm
12:35 AM 54.0°F12.2°C 50.2°F10.1°C 87% 3.8 mph WSW6.1 kmh WSW 7.6 mph12.2 kmh 30.36 in1028.1 mb 0.00 in0.0 mm 0.00 in0.0 mm 0.00 in0.0 mm
12:40 AM 54.0°F12.2°C 50.2°F10.1°C 87% 4.7 mph WSW7.6 kmh WSW 7.4 mph11.9 kmh 30.36 in1028.1 mb 0.00 in0.0 mm 0.00 in0.0 mm 0.00 in0.0 mm
12:45 AM 54.0°F12.2°C 50.2°F10.1°C 87% 5.0 mph WSW8.0 kmh WSW 6.3 mph10.1 kmh 30.36 in1028.1 mb 0.00 in0.0 mm 0.00 in0.0 mm 0.00 in0.0 mm
12:50 AM 54.1°F12.3°C 50.3°F10.2°C 87% 5.8 mph W9.3 kmh W 6.9 mph11.1 kmh 30.36 in1028.1 mb 0.00 in0.0 mm 0.00 in0.0 mm 0.00 in0.0 mm
12:55 AM 54.1°F12.3°C 50.4°F10.2°C 87% 5.7 mph W9.2 kmh W 7.6 mph12.2 kmh 30.36 in1028.1 mb 0.00 in0.0 mm 0.00 in0.0 mm 0.00 in0.0 mm
01:00 AM 54.3°F12.4°C 50.5°F10.3°C 87% 5.1 mph W8.2 kmh W 7.6 mph12.2 kmh 30.35 in1027.8 mb 0.00 in0.0 mm 0.00 in0.0 mm 0.00 in0.0 mm
01:05 AM 54.3°F12.4°C 50.5°F10.3°C 87% 5.3 mph W8.5 kmh W 10.1 mph16.3 kmh 30.35 in1027.8 mb 0.00 in0.0 mm 0.00 in0.0 mm 0.00 in0.0 mm
01:10 AM 54.3°F12.4°C 50.5°F10.3°C 87% 5.8 mph WSW9.3 kmh WSW 8.7 mph14.0 kmh 30.35 in1027.8 mb 0.00 in0.0 mm 0.00 in0.0 mm 0.00 in0.0 mm
01:15 AM 54.3°F12.4°C 50.2°F10.1°C 86% 6.1 mph WSW9.8 kmh WSW 8.1 mph13.0 kmh 30.35 in1027.8 mb 0.00 in0.0 mm 0.00 in0.0 mm 0.00 in0.0 mm
01:20 AM 54.2°F12.3°C 50.1°F10.1°C 86% 6.9 mph WSW11.1 kmh WSW 8.5 mph13.7 kmh 30.35 in1027.8 mb 0.00 in0.0 mm 0.00 in0.0 mm 0.00 in0.0 mm
01:25 AM 54.2°F12.3°C 50.1°F10.1°C 86% 6.7 mph WSW10.8 kmh WSW 7.6 mph12.2 kmh 30.35 in1027.8 mb 0.00 in0.0 mm 0.00 in0.0 mm 0.00 in0.0 mm
01:30 AM 54.1°F12.3°C 50.0°F10.0°C 86% 5.8 mph WSW9.3 kmh WSW 8.7 mph14.0 kmh 30.35 in1027.8 mb 0.00 in0.0 mm 0.00 in0.0 mm 0.00 in0.0 mm
01:35 AM 54.1°F12.3°C 50.0°F10.0°C 86% 6.0 mph WSW9.7 kmh WSW 9.2 mph14.8 kmh 30.35 in1027.8 mb 0.00 in0.0 mm 0.00 in0.0 mm 0.00 in0.0 mm
01:40 AM 54.0°F12.2°C 49.9°F9.9°C 86% 6.5 mph W10.5 kmh W 7.4 mph11.9 kmh 30.35 in1027.8 mb 0.00 in0.0 mm 0.00 in0.0 mm 0.00 in0.0 mm
01:45 AM 54.0°F12.2°C 49.9°F9.9°C 86% 6.2 mph W10.0 kmh W 8.1 mph13.0 kmh 30.34 in1027.4 mb 0.00 in0.0 mm 0.00 in0.0 mm 0.00 in0.0 mm
01:50 AM 54.0°F12.2°C 49.9°F9.9°C 86% 5.1 mph WSW8.2 kmh WSW 10.3 mph16.6 kmh 30.34 in1027.4 mb 0.00 in0.0 mm 0.00 in0.0 mm 0.00 in0.0 mm
01:55 AM 53.9°F12.2°C 49.9°F9.9°C 86% 5.5 mph WSW8.9 kmh WSW 9.6 mph15.4 kmh 30.34 in1027.4 mb 0.00 in0.0 mm 0.00 in0.0 mm 0.00 in0.0 mm
02:00 AM 53.8°F12.1°C 49.7°F9.8°C 86% 6.5 mph WSW10.5 kmh WSW 9.2 mph14.8 kmh 30.34 in1027.4 mb 0.00 in0.0 mm 0.00 in0.0 mm 0.00 in0.0 mm
02:05 AM 53.8°F12.1°C 49.7°F9.8°C 86% 6.6 mph WSW10.6 kmh WSW 9.2 mph14.8 kmh 30.34 in1027.4 mb 0.00 in0.0 mm 0.00 in0.0 mm 0.00 in0.0 mm
02:10 AM 53.6°F12.0°C 49.5°F9.7°C 86% 6.9 mph WSW11.1 kmh WSW 8.5 mph13.7 kmh 30.34 in1027.4 mb 0.00 in0.0 mm 0.00 in0.0 mm 0.00 in0.0 mm
02:15 AM 53.4°F11.9°C 49.3°F9.6°C 86% 6.8 mph WSW10.9 kmh WSW 10.1 mph16.3 kmh 30.34 in1027.4 mb 0.00 in0.0 mm 0.00 in0.0 mm 0.00 in0.0 mm
02:20 AM 53.3°F11.8°C 49.2°F9.6°C 86% 6.5 mph WSW10.5 kmh WSW 8.7 mph14.0 kmh 30.34 in1027.4 mb 0.00 in0.0 mm 0.00 in0.0 mm 0.00 in0.0 mm
02:25 AM 53.1°F11.7°C 49.0°F9.4°C 86% 6.4 mph WSW10.3 kmh WSW 9.2 mph14.8 kmh 30.34 in1027.4 mb 0.00 in0.0 mm 0.00 in0.0 mm 0.00 in0.0 mm
02:30 AM 52.9°F11.6°C 48.8°F9.3°C 86% 6.3 mph WSW10.1 kmh WSW 8.7 mph14.0 kmh 30.34 in1027.4 mb 0.00 in0.0 mm 0.00 in0.0 mm 0.00 in0.0 mm
02:35 AM 52.6°F11.4°C 48.6°F9.2°C 86% 6.3 mph WSW10.1 kmh WSW 9.2 mph14.8 kmh 30.34 in1027.4 mb 0.00 in0.0 mm 0.00 in0.0 mm 0.00 in0.0 mm
02:40 AM 52.5°F11.4°C 48.5°F9.2°C 86% 6.3 mph W10.1 kmh W 8.7 mph14.0 kmh 30.34 in1027.4 mb 0.00 in0.0 mm 0.00 in0.0 mm 0.00 in0.0 mm
02:45 AM 52.3°F11.3°C 48.3°F9.1°C 86% 6.3 mph W10.1 kmh W 10.1 mph16.3 kmh 30.34 in1027.4 mb 0.00 in0.0 mm 0.00 in0.0 mm 0.00 in0.0 mm
02:50 AM 52.2°F11.2°C 48.1°F8.9°C 86% 6.5 mph WSW10.5 kmh WSW 11.9 mph19.2 kmh 30.34 in1027.4 mb 0.00 in0.0 mm 0.00 in0.0 mm 0.00 in0.0 mm
02:55 AM 52.0°F11.1°C 48.1°F8.9°C 86% 6.7 mph WSW10.8 kmh WSW 10.1 mph16.3 kmh 30.35 in1027.8 mb 0.00 in0.0 mm 0.00 in0.0 mm 0.00 in0.0 mm
03:00 AM 51.8°F11.0°C 48.0°F8.9°C 87% 7.6 mph WSW12.2 kmh WSW 10.3 mph16.6 kmh 30.35 in1027.8 mb 0.00 in0.0 mm 0.00 in0.0 mm 0.00 in0.0 mm
03:05 AM 51.5°F10.8°C 47.8°F8.8°C 87% 7.6 mph WSW12.2 kmh WSW 11.2 mph18.0 kmh 30.35 in1027.8 mb 0.00 in0.0 mm 0.00 in0.0 mm 0.00 in0.0 mm
03:10 AM 51.3°F10.7°C 47.6°F8.7°C 87% 7.6 mph WSW12.2 kmh WSW 10.1 mph16.3 kmh 30.35 in1027.8 mb 0.00 in0.0 mm 0.00 in0.0 mm 0.00 in0.0 mm
03:15 AM 51.2°F10.7°C 47.6°F8.7°C 88% 7.7 mph WSW12.4 kmh WSW 10.7 mph17.2 kmh 30.35 in1027.8 mb 0.00 in0.0 mm 0.00 in0.0 mm 0.00 in0.0 mm
03:20 AM 51.0°F10.6°C 47.6°F8.7°C 88% 8.1 mph WSW13.0 kmh WSW 10.1 mph16.3 kmh 30.35 in1027.8 mb 0.00 in0.0 mm 0.00 in0.0 mm 0.00 in0.0 mm
03:25 AM 50.8°F10.4°C 47.3°F8.5°C 88% 7.9 mph WSW12.7 kmh WSW 10.3 mph16.6 kmh 30.35 in1027.8 mb 0.00 in0.0 mm 0.00 in0.0 mm 0.00 in0.0 mm
03:30 AM 50.7°F10.4°C 47.3°F8.5°C 88% 7.6 mph WSW12.2 kmh WSW 9.2 mph14.8 kmh 30.34 in1027.4 mb 0.00 in0.0 mm 0.00 in0.0 mm 0.00 in0.0 mm
03:35 AM 50.5°F10.3°C 47.1°F8.4°C 88% 7.3 mph WSW11.7 kmh WSW 8.1 mph13.0 kmh 30.34 in1027.4 mb 0.00 in0.0 mm 0.00 in0.0 mm 0.00 in0.0 mm
03:40 AM 50.4°F10.2°C 47.0°F8.3°C 88% 6.5 mph WSW10.5 kmh WSW 9.2 mph14.8 kmh 30.34 in1027.4 mb 0.00 in0.0 mm 0.00 in0.0 mm 0.00 in0.0 mm
03:45 AM 50.3°F10.2°C 46.9°F8.3°C 88% 6.5 mph WSW10.5 kmh WSW 8.5 mph13.7 kmh 30.34 in1027.4 mb 0.00 in0.0 mm 0.00 in0.0 mm 0.00 in0.0 mm
03:50 AM 50.1°F10.1°C 46.7°F8.2°C 88% 6.5 mph WSW10.5 kmh WSW 8.7 mph14.0 kmh 30.34 in1027.4 mb 0.00 in0.0 mm 0.00 in0.0 mm 0.00 in0.0 mm
03:55 AM 49.9°F9.9°C 46.5°F8.1°C 88% 6.5 mph WSW10.5 kmh WSW 8.7 mph14.0 kmh 30.34 in1027.4 mb 0.00 in0.0 mm 0.00 in0.0 mm 0.00 in0.0 mm
04:00 AM 49.8°F9.9°C 46.4°F8.0°C 88% 6.5 mph W10.5 kmh W 8.7 mph14.0 kmh 30.34 in1027.4 mb 0.00 in0.0 mm 0.00 in0.0 mm 0.00 in0.0 mm
04:05 AM 49.7°F9.8°C 46.4°F8.0°C 88% 6.3 mph W10.1 kmh W 7.4 mph11.9 kmh 30.34 in1027.4 mb 0.00 in0.0 mm 0.00 in0.0 mm 0.00 in0.0 mm
04:10 AM 49.6°F9.8°C 46.5°F8.1°C 89% 5.8 mph W9.3 kmh W 6.5 mph10.5 kmh 30.34 in1027.4 mb 0.00 in0.0 mm 0.00 in0.0 mm 0.00 in0.0 mm
04:15 AM 49.6°F9.8°C 46.5°F8.1°C 89% 5.6 mph W9.0 kmh W 6.3 mph10.1 kmh 30.34 in1027.4 mb 0.00 in0.0 mm 0.00 in0.0 mm 0.00 in0.0 mm
04:20 AM 49.6°F9.8°C 46.5°F8.1°C 89% 4.7 mph WSW7.6 kmh WSW 6.9 mph11.1 kmh 30.34 in1027.4 mb 0.00 in0.0 mm 0.00 in0.0 mm 0.00 in0.0 mm
04:25 AM 49.6°F9.8°C 46.5°F8.1°C 89% 4.6 mph WSW7.4 kmh WSW 5.4 mph8.7 kmh 30.34 in1027.4 mb 0.00 in0.0 mm 0.00 in0.0 mm 0.00 in0.0 mm
04:30 AM 49.6°F9.8°C 46.5°F8.1°C 89% 4.3 mph WSW6.9 kmh WSW 6.5 mph10.5 kmh 30.34 in1027.4 mb 0.00 in0.0 mm 0.00 in0.0 mm 0.00 in0.0 mm
04:35 AM 49.6°F9.8°C 46.5°F8.1°C 89% 4.4 mph WSW7.1 kmh WSW 8.5 mph13.7 kmh 30.34 in1027.4 mb 0.00 in0.0 mm 0.00 in0.0 mm 0.00 in0.0 mm
04:40 AM 49.6°F9.8°C 46.5°F8.1°C 89% 4.7 mph WSW7.6 kmh WSW 10.3 mph16.6 kmh 30.33 in1027.1 mb 0.00 in0.0 mm 0.00 in0.0 mm 0.00 in0.0 mm
04:45 AM 49.5°F9.7°C 46.1°F7.8°C 88% 5.1 mph WSW8.2 kmh WSW 9.6 mph15.4 kmh 30.33 in1027.1 mb 0.00 in0.0 mm 0.00 in0.0 mm 0.00 in0.0 mm
04:50 AM 49.5°F9.7°C 46.1°F7.8°C 88% 6.5 mph WSW10.5 kmh WSW 8.7 mph14.0 kmh 30.33 in1027.1 mb 0.00 in0.0 mm 0.00 in0.0 mm 0.00 in0.0 mm
04:55 AM 49.5°F9.7°C 46.1°F7.8°C 88% 6.4 mph WSW10.3 kmh WSW 8.5 mph13.7 kmh 30.33 in1027.1 mb 0.00 in0.0 mm 0.00 in0.0 mm 0.00 in0.0 mm
05:00 AM 49.5°F9.7°C 46.1°F7.8°C 88% 6.3 mph WSW10.1 kmh WSW 8.5 mph13.7 kmh 30.33 in1027.1 mb 0.00 in0.0 mm 0.00 in0.0 mm 0.00 in0.0 mm
05:05 AM 49.5°F9.7°C 45.9°F7.7°C 87% 6.3 mph WSW10.1 kmh WSW 8.1 mph13.0 kmh 30.33 in1027.1 mb 0.00 in0.0 mm 0.00 in0.0 mm 0.00 in0.0 mm
05:10 AM 49.5°F9.7°C 45.8°F7.7°C 87% 6.3 mph WSW10.1 kmh WSW 7.4 mph11.9 kmh 30.33 in1027.1 mb 0.00 in0.0 mm 0.00 in0.0 mm 0.00 in0.0 mm
05:15 AM 49.6°F9.8°C 45.9°F7.7°C 87% 6.1 mph WSW9.8 kmh WSW 6.9 mph11.1 kmh 30.33 in1027.1 mb 0.00 in0.0 mm 0.00 in0.0 mm 0.00 in0.0 mm
05:20 AM 49.6°F9.8°C 45.9°F7.7°C 87% 5.4 mph W8.7 kmh W 6.5 mph10.5 kmh 30.33 in1027.1 mb 0.00 in0.0 mm 0.00 in0.0 mm 0.00 in0.0 mm
05:25 AM 49.7°F9.8°C 45.7°F7.6°C 86% 5.2 mph WSW8.4 kmh WSW 6.5 mph10.5 kmh 30.33 in1027.1 mb 0.00 in0.0 mm 0.00 in0.0 mm 0.00 in0.0 mm
05:30 AM 49.8°F9.9°C 45.8°F7.7°C 86% 4.7 mph WSW7.6 kmh WSW 5.8 mph9.3 kmh 30.33 in1027.1 mb 0.00 in0.0 mm 0.00 in0.0 mm 0.00 in0.0 mm
05:35 AM 49.8°F9.9°C 45.7°F7.6°C 86% 4.4 mph WSW7.1 kmh WSW 5.1 mph8.2 kmh 30.33 in1027.1 mb 0.00 in0.0 mm 0.00 in0.0 mm 0.00 in0.0 mm
05:40 AM 50.0°F10.0°C 45.6°F7.6°C 85% 3.6 mph WSW5.8 kmh WSW 5.4 mph8.7 kmh 30.33 in1027.1 mb 0.00 in0.0 mm 0.00 in0.0 mm 0.00 in0.0 mm
05:45 AM 50.0°F10.0°C 45.7°F7.6°C 85% 3.7 mph WSW6.0 kmh WSW 7.4 mph11.9 kmh 30.33 in1027.1 mb 0.00 in0.0 mm 0.00 in0.0 mm 0.00 in0.0 mm
05:50 AM 50.2°F10.1°C 45.8°F7.7°C 85% 4.0 mph WSW6.4 kmh WSW 9.6 mph15.4 kmh 30.33 in1027.1 mb 0.00 in0.0 mm 0.00 in0.0 mm 0.00 in0.0 mm
05:55 AM 50.1°F10.1°C 45.4°F7.4°C 84% 4.5 mph WSW7.2 kmh WSW 7.6 mph12.2 kmh 30.33 in1027.1 mb 0.00 in0.0 mm 0.00 in0.0 mm 0.00 in0.0 mm
06:00 AM 50.0°F10.0°C 45.4°F7.4°C 84% 6.3 mph WSW10.1 kmh WSW 6.5 mph10.5 kmh 30.33 in1027.1 mb 0.00 in0.0 mm 0.00 in0.0 mm 0.00 in0.0 mm
06:05 AM 50.0°F10.0°C 45.5°F7.5°C 84% 6.0 mph WSW9.7 kmh WSW 6.9 mph11.1 kmh 30.33 in1027.1 mb 0.00 in0.0 mm 0.00 in0.0 mm 0.00 in0.0 mm
06:10 AM 50.1°F10.1°C 45.7°F7.6°C 85% 5.1 mph WSW8.2 kmh WSW 5.8 mph9.3 kmh 30.33 in1027.1 mb 0.00 in0.0 mm 0.00 in0.0 mm 0.00 in0.0 mm
06:15 AM 50.2°F10.1°C 45.8°F7.7°C 85% 4.9 mph WSW7.9 kmh WSW 5.1 mph8.2 kmh 30.33 in1027.1 mb 0.00 in0.0 mm 0.00 in0.0 mm 0.00 in0.0 mm
06:20 AM 50.2°F10.1°C 45.8°F7.7°C 85% 4.0 mph WSW6.4 kmh WSW 6.3 mph10.1 kmh 30.33 in1027.1 mb 0.00 in0.0 mm 0.00 in0.0 mm 0.00 in0.0 mm
06:25 AM 50.2°F10.1°C 45.5°F7.5°C 84% 4.0 mph WSW6.4 kmh WSW 5.8 mph9.3 kmh 30.33 in1027.1 mb 0.00 in0.0 mm 0.00 in0.0 mm 0.00 in0.0 mm
06:30 AM 50.2°F10.1°C 45.5°F7.5°C 84% 4.0 mph WSW6.4 kmh WSW 6.3 mph10.1 kmh 30.33 in1027.1 mb 0.00 in0.0 mm 0.00 in0.0 mm 0.00 in0.0 mm
06:35 AM 50.2°F10.1°C 45.5°F7.5°C 84% 4.1 mph WSW6.6 kmh WSW 4.7 mph7.6 kmh 30.33 in1027.1 mb 0.00 in0.0 mm 0.00 in0.0 mm 0.00 in0.0 mm
06:40 AM 50.2°F10.1°C 45.5°F7.5°C 84% 4.3 mph WSW6.9 kmh WSW 7.4 mph11.9 kmh 30.34 in1027.4 mb 0.00 in0.0 mm 0.00 in0.0 mm 0.00 in0.0 mm
06:45 AM 50.2°F10.1°C 45.5°F7.5°C 84% 4.5 mph WSW7.2 kmh WSW 7.4 mph11.9 kmh 30.34 in1027.4 mb 0.00 in0.0 mm 0.00 in0.0 mm 0.00 in0.0 mm
06:50 AM 50.0°F10.0°C 45.4°F7.4°C 84% 5.1 mph WSW8.2 kmh WSW 7.6 mph12.2 kmh 30.34 in1027.4 mb 0.00 in0.0 mm 0.00 in0.0 mm 0.00 in0.0 mm
06:55 AM 49.8°F9.9°C 45.2°F7.3°C 84% 5.1 mph WSW8.2 kmh WSW 6.3 mph10.1 kmh 30.34 in1027.4 mb 0.00 in0.0 mm 0.00 in0.0 mm 0.00 in0.0 mm
07:00 AM 49.8°F9.9°C 45.2°F7.3°C 84% 5.1 mph WSW8.2 kmh WSW 5.1 mph8.2 kmh 30.34 in1027.4 mb 0.00 in0.0 mm 0.00 in0.0 mm 0.00 in0.0 mm
07:05 AM 49.7°F9.8°C 45.1°F7.3°C 84% 4.9 mph WSW7.9 kmh WSW 6.3 mph10.1 kmh 30.34 in1027.4 mb 0.00 in0.0 mm 0.00 in0.0 mm 0.00 in0.0 mm
07:10 AM 49.6°F9.8°C 45.0°F7.2°C 84% 4.0 mph WSW6.4 kmh WSW 6.5 mph10.5 kmh 30.34 in1027.4 mb 0.00 in0.0 mm 0.00 in0.0 mm 0.00 in0.0 mm
07:15 AM 49.7°F9.8°C 45.0°F7.2°C 84% 4.0 mph WSW6.4 kmh WSW 5.8 mph9.3 kmh 30.34 in1027.4 mb 0.00 in0.0 mm 0.00 in0.0 mm 0.00 in0.0 mm
07:20 AM 49.6°F9.8°C 45.0°F7.2°C 84% 4.0 mph WSW6.4 kmh WSW 4.7 mph7.6 kmh 30.34 in1027.4 mb 0.00 in0.0 mm 0.00 in0.0 mm 0.00 in0.0 mm
07:25 AM 49.6°F9.8°C 45.0°F7.2°C 84% 3.9 mph WSW6.3 kmh WSW 4.3 mph6.9 kmh 30.34 in1027.4 mb 0.00 in0.0 mm 0.00 in0.0 mm 0.00 in0.0 mm
07:30 AM 49.6°F9.8°C 45.0°F7.2°C 84% 3.6 mph WSW5.8 kmh WSW 6.5 mph10.5 kmh 30.34 in1027.4 mb 0.00 in0.0 mm 0.00 in0.0 mm 0.00 in0.0 mm
07:35 AM 49.6°F9.8°C 45.0°F7.2°C 84% 3.7 mph WSW6.0 kmh WSW 5.8 mph9.3 kmh 30.34 in1027.4 mb 0.00 in0.0 mm 0.00 in0.0 mm 0.00 in0.0 mm
07:40 AM 49.6°F9.8°C 45.0°F7.2°C 84% 4.3 mph WSW6.9 kmh WSW 6.5 mph10.5 kmh 30.35 in1027.8 mb 0.00 in0.0 mm 0.00 in0.0 mm 0.00 in0.0 mm
07:45 AM 49.6°F9.8°C 45.0°F7.2°C 84% 4.2 mph WSW6.8 kmh WSW 5.4 mph8.7 kmh 30.35 in1027.8 mb 0.00 in0.0 mm 0.00 in0.0 mm 0.00 in0.0 mm
07:50 AM 49.6°F9.8°C 44.7°F7.1°C 83% 4.0 mph WSW6.4 kmh WSW 4.0 mph6.4 kmh 30.35 in1027.8 mb 0.00 in0.0 mm 0.00 in0.0 mm 0.00 in0.0 mm
07:55 AM 49.6°F9.8°C 44.7°F7.1°C 83% 3.8 mph WSW6.1 kmh WSW 4.3 mph6.9 kmh 30.35 in1027.8 mb 0.00 in0.0 mm 0.00 in0.0 mm 0.00 in0.0 mm
08:00 AM 49.6°F9.8°C 44.7°F7.1°C 83% 2.9 mph WSW4.7 kmh WSW 4.3 mph6.9 kmh 30.35 in1027.8 mb 0.00 in0.0 mm 0.00 in0.0 mm 0.00 in0.0 mm
08:05 AM 49.6°F9.8°C 44.7°F7.1°C 83% 3.1 mph WSW5.0 kmh WSW 6.3 mph10.1 kmh 30.35 in1027.8 mb 0.00 in0.0 mm 0.00 in0.0 mm 0.00 in0.0 mm
08:10 AM 49.6°F9.8°C 44.5°F6.9°C 82% 3.6 mph SW5.8 kmh SW 6.9 mph11.1 kmh 30.35 in1027.8 mb 0.00 in0.0 mm 0.00 in0.0 mm 0.00 in0.0 mm
08:15 AM 49.6°F9.8°C 44.3°F6.8°C 82% 3.8 mph SW6.1 kmh SW 7.4 mph11.9 kmh 30.35 in1027.8 mb 0.00 in0.0 mm 0.00 in0.0 mm 0.00 in0.0 mm
08:20 AM 49.5°F9.7°C 44.0°F6.7°C 81% 4.7 mph WSW7.6 kmh WSW 7.4 mph11.9 kmh 30.35 in1027.8 mb 0.00 in0.0 mm 0.00 in0.0 mm 0.00 in0.0 mm
08:25 AM 49.4°F9.7°C 43.8°F6.6°C 81% 4.7 mph WSW7.6 kmh WSW 7.6 mph12.2 kmh 30.36 in1028.1 mb 0.00 in0.0 mm 0.00 in0.0 mm 0.00 in0.0 mm
08:30 AM 49.3°F9.6°C 43.7°F6.5°C 81% 4.7 mph WSW7.6 kmh WSW 8.5 mph13.7 kmh 30.36 in1028.1 mb 0.00 in0.0 mm 0.00 in0.0 mm 0.00 in0.0 mm
08:35 AM 49.3°F9.6°C 43.7°F6.5°C 81% 5.1 mph WSW8.2 kmh WSW 8.7 mph14.0 kmh 30.36 in1028.1 mb 0.00 in0.0 mm 0.00 in0.0 mm 0.00 in0.0 mm
08:40 AM 49.3°F9.6°C 43.7°F6.5°C 81% 6.3 mph WSW10.1 kmh WSW 8.5 mph13.7 kmh 30.36 in1028.1 mb 0.00 in0.0 mm 0.00 in0.0 mm 0.00 in0.0 mm
08:45 AM 49.3°F9.6°C 43.7°F6.5°C 81% 6.3 mph WSW10.1 kmh WSW 8.5 mph13.7 kmh 30.36 in1028.1 mb 0.00 in0.0 mm 0.00 in0.0 mm 0.00 in0.0 mm
08:50 AM 49.3°F9.6°C 43.7°F6.5°C 81% 6.5 mph WSW10.5 kmh WSW 8.5 mph13.7 kmh 30.36 in1028.1 mb 0.00 in0.0 mm 0.00 in0.0 mm 0.00 in0.0 mm
08:55 AM 49.3°F9.6°C 43.5°F6.4°C 80% 6.4 mph WSW10.3 kmh WSW 9.6 mph15.4 kmh 30.36 in1028.1 mb 0.00 in0.0 mm 0.00 in0.0 mm 0.00 in0.0 mm
09:00 AM 49.3°F9.6°C 43.4°F6.3°C 80% 6.3 mph WSW10.1 kmh WSW 10.3 mph16.6 kmh 30.36 in1028.1 mb 0.00 in0.0 mm 0.00 in0.0 mm 0.00 in0.0 mm
09:05 AM 49.3°F9.6°C 43.4°F6.3°C 80% 6.5 mph WSW10.5 kmh WSW 10.7 mph17.2 kmh 30.36 in1028.1 mb 0.00 in0.0 mm 0.00 in0.0 mm 0.00 in0.0 mm
09:10 AM 49.4°F9.7°C 43.3°F6.3°C 79% 7.4 mph W11.9 kmh W 10.1 mph16.3 kmh 30.36 in1028.1 mb 0.00 in0.0 mm 0.00 in0.0 mm 0.00 in0.0 mm
09:15 AM 49.5°F9.7°C 43.2°F6.2°C 79% 7.3 mph W11.7 kmh W 10.1 mph16.3 kmh 30.37 in1028.4 mb 0.00 in0.0 mm 0.00 in0.0 mm 0.00 in0.0 mm
09:20 AM 49.5°F9.7°C 43.2°F6.2°C 79% 6.9 mph W11.1 kmh W 8.5 mph13.7 kmh 30.37 in1028.4 mb 0.00 in0.0 mm 0.00 in0.0 mm 0.00 in0.0 mm
09:25 AM 49.5°F9.7°C 43.2°F6.2°C 79% 6.8 mph W10.9 kmh W 8.1 mph13.0 kmh 30.37 in1028.4 mb 0.00 in0.0 mm 0.00 in0.0 mm 0.00 in0.0 mm
09:30 AM 49.7°F9.8°C 43.4°F6.3°C 79% 6.3 mph W10.1 kmh W 8.1 mph13.0 kmh 30.37 in1028.4 mb 0.00 in0.0 mm 0.00 in0.0 mm 0.00 in0.0 mm
09:35 AM 50.2°F10.1°C 44.0°F6.7°C 79% 6.2 mph W10.0 kmh W 9.2 mph14.8 kmh 30.37 in1028.4 mb 0.00 in0.0 mm 0.00 in0.0 mm 0.00 in0.0 mm
09:40 AM 50.7°F10.4°C 44.2°F6.8°C 78% 5.8 mph W9.3 kmh W 8.7 mph14.0 kmh 30.37 in1028.4 mb 0.00 in0.0 mm 0.00 in0.0 mm 0.00 in0.0 mm
09:45 AM 51.1°F10.6°C 44.2°F6.8°C 77% 6.0 mph W9.7 kmh W 10.1 mph16.3 kmh 30.37 in1028.4 mb 0.00 in0.0 mm 0.00 in0.0 mm 0.00 in0.0 mm
09:50 AM 51.0°F10.6°C 43.7°F6.5°C 76% 6.5 mph W10.5 kmh W 10.1 mph16.3 kmh 30.37 in1028.4 mb 0.00 in0.0 mm 0.00 in0.0 mm 0.00 in0.0 mm
09:55 AM 50.7°F10.4°C 43.7°F6.5°C 77% 6.5 mph W10.5 kmh W 10.1 mph16.3 kmh 30.37 in1028.4 mb 0.00 in0.0 mm 0.00 in0.0 mm 0.00 in0.0 mm
10:00 AM 50.6°F10.3°C 43.7°F6.5°C 77% 6.5 mph WSW10.5 kmh WSW 11.2 mph18.0 kmh 30.38 in1028.8 mb 0.00 in0.0 mm 0.00 in0.0 mm 0.00 in0.0 mm
10:05 AM 50.5°F10.3°C 43.9°F6.6°C 78% 6.7 mph W10.8 kmh W 10.7 mph17.2 kmh 30.38 in1028.8 mb 0.00 in0.0 mm 0.00 in0.0 mm 0.00 in0.0 mm
10:10 AM 50.4°F10.2°C 43.8°F6.6°C 78% 7.4 mph W11.9 kmh W 9.2 mph14.8 kmh 30.37 in1028.4 mb 0.00 in0.0 mm 0.00 in0.0 mm 0.00 in0.0 mm
10:15 AM 50.4°F10.2°C 44.0°F6.7°C 78% 7.2 mph W11.6 kmh W 8.1 mph13.0 kmh 30.37 in1028.4 mb 0.00 in0.0 mm 0.00 in0.0 mm 0.00 in0.0 mm
10:20 AM 50.6°F10.3°C 44.4°F6.9°C 79% 6.5 mph W10.5 kmh W 6.9 mph11.1 kmh 30.37 in1028.4 mb 0.00 in0.0 mm 0.00 in0.0 mm 0.00 in0.0 mm
10:25 AM 50.8°F10.4°C 44.6°F7.0°C 79% 6.1 mph WSW9.8 kmh WSW 6.5 mph10.5 kmh 30.37 in1028.4 mb 0.00 in0.0 mm 0.00 in0.0 mm 0.00 in0.0 mm
10:30 AM 51.1°F10.6°C 44.9°F7.2°C 79% 4.7 mph WSW7.6 kmh WSW 5.8 mph9.3 kmh 30.38 in1028.8 mb 0.00 in0.0 mm 0.00 in0.0 mm 0.00 in0.0 mm
10:35 AM 51.4°F10.8°C 45.0°F7.2°C 79% 4.5 mph WSW7.2 kmh WSW 6.5 mph10.5 kmh 30.38 in1028.8 mb 0.00 in0.0 mm 0.00 in0.0 mm 0.00 in0.0 mm
10:40 AM 51.6°F10.9°C 45.0°F7.2°C 78% 4.0 mph WSW6.4 kmh WSW 7.4 mph11.9 kmh 30.38 in1028.8 mb 0.00 in0.0 mm 0.00 in0.0 mm 0.00 in0.0 mm
10:45 AM 52.0°F11.1°C 45.4°F7.4°C 78% 4.2 mph WSW6.8 kmh WSW 7.4 mph11.9 kmh 30.38 in1028.8 mb 0.00 in0.0 mm 0.00 in0.0 mm 0.00 in0.0 mm
10:50 AM 52.3°F11.3°C 45.6°F7.6°C 78% 4.7 mph WSW7.6 kmh WSW 6.5 mph10.5 kmh 30.38 in1028.8 mb 0.00 in0.0 mm 0.00 in0.0 mm 0.00 in0.0 mm
10:55 AM 52.6°F11.4°C 45.9°F7.7°C 78% 4.8 mph WSW7.7 kmh WSW 7.4 mph11.9 kmh 30.38 in1028.8 mb 0.00 in0.0 mm 0.00 in0.0 mm 0.00 in0.0 mm
11:00 AM 53.0°F11.7°C 46.1°F7.8°C 78% 5.1 mph WSW8.2 kmh WSW 6.3 mph10.1 kmh 30.38 in1028.8 mb 0.00 in0.0 mm 0.00 in0.0 mm 0.00 in0.0 mm
11:05 AM 53.2°F11.8°C 46.1°F7.8°C 77% 5.0 mph WSW8.0 kmh WSW 8.5 mph13.7 kmh 30.38 in1028.8 mb 0.00 in0.0 mm 0.00 in0.0 mm 0.00 in0.0 mm
11:10 AM 53.4°F11.9°C 46.3°F7.9°C 77% 4.7 mph WSW7.6 kmh WSW 7.6 mph12.2 kmh 30.38 in1028.8 mb 0.00 in0.0 mm 0.00 in0.0 mm 0.00 in0.0 mm
11:15 AM 53.5°F11.9°C 46.4°F8.0°C 77% 4.6 mph WSW7.4 kmh WSW 6.5 mph10.5 kmh 30.38 in1028.8 mb 0.00 in0.0 mm 0.00 in0.0 mm 0.00 in0.0 mm
11:20 AM 53.8°F12.1°C 46.4°F8.0°C 76% 4.3 mph SW6.9 kmh SW 6.3 mph10.1 kmh 30.38 in1028.8 mb 0.00 in0.0 mm 0.00 in0.0 mm 0.00 in0.0 mm
11:25 AM 53.8°F12.1°C 46.4°F8.0°C 76% 4.2 mph SW6.8 kmh SW 6.5 mph10.5 kmh 30.37 in1028.4 mb 0.00 in0.0 mm 0.00 in0.0 mm 0.00 in0.0 mm
11:30 AM 53.8°F12.1°C 46.5°F8.1°C 76% 4.0 mph SW6.4 kmh SW 6.3 mph10.1 kmh 30.37 in1028.4 mb 0.00 in0.0 mm 0.00 in0.0 mm 0.00 in0.0 mm
11:35 AM 54.0°F12.2°C 46.6°F8.1°C 76% 4.1 mph SW6.6 kmh SW 6.5 mph10.5 kmh 30.37 in1028.4 mb 0.00 in0.0 mm 0.00 in0.0 mm 0.00 in0.0 mm
11:40 AM 54.2°F12.3°C 46.9°F8.3°C 76% 4.3 mph WSW6.9 kmh WSW 6.3 mph10.1 kmh 30.37 in1028.4 mb 0.00 in0.0 mm 0.00 in0.0 mm 0.00 in0.0 mm
11:45 AM 54.6°F12.6°C 47.5°F8.6°C 77% 4.2 mph WSW6.8 kmh WSW 6.3 mph10.1 kmh 30.37 in1028.4 mb 0.00 in0.0 mm 0.00 in0.0 mm 0.00 in0.0 mm
11:50 AM 54.9°F12.7°C 47.8°F8.8°C 77% 4.0 mph WSW6.4 kmh WSW 6.3 mph10.1 kmh 30.37 in1028.4 mb 0.00 in0.0 mm 0.00 in0.0 mm 0.00 in0.0 mm
11:55 AM 55.1°F12.8°C 48.0°F8.9°C 77% 3.8 mph WSW6.1 kmh WSW 5.1 mph8.2 kmh 30.36 in1028.1 mb 0.00 in0.0 mm 0.00 in0.0 mm 0.00 in0.0 mm
12:00 PM 55.3°F12.9°C 48.1°F8.9°C 77% 3.1 mph SW5.0 kmh SW 6.5 mph10.5 kmh 30.36 in1028.1 mb 0.00 in0.0 mm 0.00 in0.0 mm 0.00 in0.0 mm
12:05 PM 55.6°F13.1°C 48.0°F8.9°C 75% 3.2 mph SW5.1 kmh SW 5.4 mph8.7 kmh 30.36 in1028.1 mb 0.00 in0.0 mm 0.00 in0.0 mm 0.00 in0.0 mm
12:10 PM 55.6°F13.1°C 47.8°F8.8°C 75% 3.6 mph SW5.8 kmh SW 5.4 mph8.7 kmh 30.36 in1028.1 mb 0.00 in0.0 mm 0.00 in0.0 mm 0.00 in0.0 mm
12:15 PM 55.6°F13.1°C 48.0°F8.9°C 76% 3.5 mph SW5.6 kmh SW 4.7 mph7.6 kmh 30.35 in1027.8 mb 0.00 in0.0 mm 0.00 in0.0 mm 0.00 in0.0 mm
12:20 PM 55.6°F13.1°C 48.0°F8.9°C 76% 3.1 mph SW5.0 kmh SW 5.1 mph8.2 kmh 30.35 in1027.8 mb 0.00 in0.0 mm 0.00 in0.0 mm 0.00 in0.0 mm
12:25 PM 55.7°F13.2°C 48.0°F8.9°C 75% 3.1 mph SW5.0 kmh SW 4.7 mph7.6 kmh 30.35 in1027.8 mb 0.00 in0.0 mm 0.00 in0.0 mm 0.00 in0.0 mm
12:30 PM 55.8°F13.2°C 48.0°F8.9°C 75% 3.1 mph SW5.0 kmh SW 5.1 mph8.2 kmh 30.35 in1027.8 mb 0.00 in0.0 mm 0.00 in0.0 mm 0.00 in0.0 mm
12:35 PM 55.8°F13.2°C 48.0°F8.9°C 75% 3.1 mph SSW5.0 kmh SSW 5.1 mph8.2 kmh 30.35 in1027.8 mb 0.00 in0.0 mm 0.00 in0.0 mm 0.00 in0.0 mm
12:40 PM 55.8°F13.2°C 48.4°F9.1°C 76% 3.1 mph S5.0 kmh S 5.4 mph8.7 kmh 30.34 in1027.4 mb 0.00 in0.0 mm 0.00 in0.0 mm 0.00 in0.0 mm
12:45 PM 55.9°F13.3°C 48.4°F9.1°C 76% 3.2 mph S5.1 kmh S 7.6 mph12.2 kmh 30.34 in1027.4 mb 0.00 in0.0 mm 0.00 in0.0 mm 0.00 in0.0 mm
12:50 PM 55.8°F13.2°C 48.7°F9.3°C 77% 3.6 mph S5.8 kmh S 6.3 mph10.1 kmh 30.34 in1027.4 mb 0.00 in0.0 mm 0.00 in0.0 mm 0.00 in0.0 mm
12:55 PM 55.9°F13.3°C 49.0°F9.4°C 77% 3.7 mph SSW6.0 kmh SSW 8.5 mph13.7 kmh 30.34 in1027.4 mb 0.00 in0.0 mm 0.00 in0.0 mm 0.00 in0.0 mm
01:00 PM 55.9°F13.3°C 48.8°F9.3°C 77% 4.3 mph SW6.9 kmh SW 7.4 mph11.9 kmh 30.34 in1027.4 mb 0.00 in0.0 mm 0.00 in0.0 mm 0.00 in0.0 mm
01:05 PM 55.9°F13.3°C 48.9°F9.4°C 78% 4.5 mph SW7.2 kmh SW 7.4 mph11.9 kmh 30.34 in1027.4 mb 0.00 in0.0 mm 0.00 in0.0 mm 0.00 in0.0 mm
01:10 PM 56.1°F13.4°C 49.2°F9.6°C 78% 5.1 mph SSW8.2 kmh SSW 6.3 mph10.1 kmh 30.33 in1027.1 mb 0.00 in0.0 mm 0.00 in0.0 mm 0.00 in0.0 mm
01:15 PM 56.1°F13.4°C 49.0°F9.4°C 77% 4.9 mph SSW7.9 kmh SSW 7.4 mph11.9 kmh 30.33 in1027.1 mb 0.00 in0.0 mm 0.00 in0.0 mm 0.00 in0.0 mm
01:20 PM 56.2°F13.4°C 48.8°F9.3°C 76% 4.0 mph SSE6.4 kmh SSE 5.4 mph8.7 kmh 30.33 in1027.1 mb 0.00 in0.0 mm 0.00 in0.0 mm 0.00 in0.0 mm
01:25 PM 56.4°F13.6°C 49.0°F9.4°C 76% 4.1 mph SSE6.6 kmh SSE 6.9 mph11.1 kmh 30.33 in1027.1 mb 0.00 in0.0 mm 0.00 in0.0 mm 0.00 in0.0 mm
01:30 PM 56.4°F13.6°C 49.1°F9.5°C 76% 4.3 mph S6.9 kmh S 9.2 mph14.8 kmh 30.32 in1026.8 mb 0.00 in0.0 mm 0.00 in0.0 mm 0.00 in0.0 mm
01:35 PM 56.7°F13.7°C 49.3°F9.6°C 76% 4.4 mph S7.1 kmh S 10.1 mph16.3 kmh 30.32 in1026.8 mb 0.00 in0.0 mm 0.00 in0.0 mm 0.00 in0.0 mm
01:40 PM 57.0°F13.9°C 49.3°F9.6°C 75% 4.7 mph S7.6 kmh S 10.7 mph17.2 kmh 30.32 in1026.8 mb 0.00 in0.0 mm 0.00 in0.0 mm 0.00 in0.0 mm
01:45 PM 57.4°F14.1°C 49.6°F9.8°C 75% 5.1 mph SSW8.2 kmh SSW 9.6 mph15.4 kmh 30.32 in1026.8 mb 0.00 in0.0 mm 0.00 in0.0 mm 0.00 in0.0 mm
01:50 PM 57.8°F14.3°C 49.8°F9.9°C 75% 6.5 mph SW10.5 kmh SW 7.4 mph11.9 kmh 30.32 in1026.8 mb 0.00 in0.0 mm 0.00 in0.0 mm 0.00 in0.0 mm
01:55 PM 58.3°F14.6°C 49.4°F9.7°C 72% 6.2 mph SSW10.0 kmh SSW 9.2 mph14.8 kmh 30.31 in1026.4 mb 0.00 in0.0 mm 0.00 in0.0 mm 0.00 in0.0 mm
02:00 PM 58.3°F14.6°C 49.4°F9.7°C 72% 5.1 mph S8.2 kmh S 8.5 mph13.7 kmh 30.31 in1026.4 mb 0.00 in0.0 mm 0.00 in0.0 mm 0.00 in0.0 mm
02:05 PM 58.2°F14.6°C 49.2°F9.6°C 72% 5.2 mph S8.4 kmh S 7.4 mph11.9 kmh 30.31 in1026.4 mb 0.00 in0.0 mm 0.00 in0.0 mm 0.00 in0.0 mm
02:10 PM 58.3°F14.6°C 49.6°F9.8°C 73% 5.4 mph SE8.7 kmh SE 7.6 mph12.2 kmh 30.31 in1026.4 mb 0.00 in0.0 mm 0.00 in0.0 mm 0.00 in0.0 mm
02:15 PM 58.5°F14.7°C 49.4°F9.7°C 72% 5.1 mph SSE8.2 kmh SSE 9.2 mph14.8 kmh 30.31 in1026.4 mb 0.00 in0.0 mm 0.00 in0.0 mm 0.00 in0.0 mm
02:20 PM 58.5°F14.7°C 49.4°F9.7°C 72% 4.3 mph S6.9 kmh S 9.2 mph14.8 kmh 30.31 in1026.4 mb 0.00 in0.0 mm 0.00 in0.0 mm 0.00 in0.0 mm
02:25 PM 58.4°F14.7°C 49.1°F9.5°C 71% 4.6 mph S7.4 kmh S 9.6 mph15.4 kmh 30.30 in1026.1 mb 0.00 in0.0 mm 0.00 in0.0 mm 0.00 in0.0 mm
02:30 PM 58.2°F14.6°C 49.2°F9.6°C 72% 5.8 mph S9.3 kmh S 8.5 mph13.7 kmh 30.30 in1026.1 mb 0.00 in0.0 mm 0.00 in0.0 mm 0.00 in0.0 mm
02:35 PM 58.2°F14.6°C 49.2°F9.6°C 72% 5.8 mph S9.3 kmh S 9.2 mph14.8 kmh 30.30 in1026.1 mb 0.00 in0.0 mm 0.00 in0.0 mm 0.00 in0.0 mm
02:40 PM 57.9°F14.4°C 48.9°F9.4°C 72% 5.8 mph SSE9.3 kmh SSE 8.7 mph14.0 kmh 30.30 in1026.1 mb 0.00 in0.0 mm 0.00 in0.0 mm 0.00 in0.0 mm
02:45 PM 58.0°F14.4°C 49.2°F9.6°C 72% 5.7 mph SSE9.2 kmh SSE 8.7 mph14.0 kmh 30.30 in1026.1 mb 0.00 in0.0 mm 0.00 in0.0 mm 0.00 in0.0 mm
02:50 PM 58.5°F14.7°C 49.5°F9.7°C 72% 5.1 mph SE8.2 kmh SE 9.2 mph14.8 kmh 30.30 in1026.1 mb 0.00 in0.0 mm 0.00 in0.0 mm 0.00 in0.0 mm
02:55 PM 58.8°F14.9°C 49.1°F9.5°C 70% 5.2 mph SSE8.4 kmh SSE 12.3 mph19.8 kmh 30.30 in1026.1 mb 0.00 in0.0 mm 0.00 in0.0 mm 0.00 in0.0 mm
03:00 PM 59.0°F15.0°C 49.3°F9.6°C 70% 5.4 mph S8.7 kmh S 10.3 mph16.6 kmh 30.30 in1026.1 mb 0.00 in0.0 mm 0.00 in0.0 mm 0.00 in0.0 mm
03:05 PM 59.3°F15.2°C 49.4°F9.7°C 70% 5.6 mph SSW9.0 kmh SSW 8.5 mph13.7 kmh 30.30 in1026.1 mb 0.00 in0.0 mm 0.00 in0.0 mm 0.00 in0.0 mm
03:10 PM 59.7°F15.4°C 49.2°F9.6°C 68% 6.5 mph SW10.5 kmh SW 13.0 mph20.9 kmh 30.30 in1026.1 mb 0.00 in0.0 mm 0.00 in0.0 mm 0.00 in0.0 mm
03:15 PM 60.0°F15.6°C 49.3°F9.6°C 68% 6.5 mph SW10.5 kmh SW 11.4 mph18.3 kmh 30.30 in1026.1 mb 0.00 in0.0 mm 0.00 in0.0 mm 0.00 in0.0 mm
03:20 PM 60.3°F15.7°C 49.3°F9.6°C 67% 6.5 mph SW10.5 kmh SW 9.6 mph15.4 kmh 30.30 in1026.1 mb 0.00 in0.0 mm 0.00 in0.0 mm 0.00 in0.0 mm
03:25 PM 60.5°F15.8°C 49.5°F9.7°C 67% 6.2 mph SW10.0 kmh SW 7.6 mph12.2 kmh 30.30 in1026.1 mb 0.00 in0.0 mm 0.00 in0.0 mm 0.00 in0.0 mm
03:30 PM 60.8°F16.0°C 49.7°F9.8°C 67% 5.1 mph SW8.2 kmh SW 6.5 mph10.5 kmh 30.30 in1026.1 mb 0.00 in0.0 mm 0.00 in0.0 mm 0.00 in0.0 mm
03:35 PM 61.2°F16.2°C 49.8°F9.9°C 66% 4.9 mph SW7.9 kmh SW 11.2 mph18.0 kmh 30.30 in1026.1 mb 0.00 in0.0 mm 0.00 in0.0 mm 0.00 in0.0 mm
03:40 PM 61.3°F16.3°C 49.3°F9.6°C 65% 4.3 mph SW6.9 kmh SW 8.5 mph13.7 kmh 30.30 in1026.1 mb 0.00 in0.0 mm 0.00 in0.0 mm 0.00 in0.0 mm
03:45 PM 61.0°F16.1°C 49.2°F9.6°C 65% 4.6 mph SW7.4 kmh SW 8.5 mph13.7 kmh 30.30 in1026.1 mb 0.00 in0.0 mm 0.00 in0.0 mm 0.00 in0.0 mm
03:50 PM 61.0°F16.1°C 49.5°F9.7°C 66% 5.8 mph SSW9.3 kmh SSW 6.9 mph11.1 kmh 30.30 in1026.1 mb 0.00 in0.0 mm 0.00 in0.0 mm 0.00 in0.0 mm
03:55 PM 60.9°F16.1°C 49.5°F9.7°C 66% 5.6 mph SSW9.0 kmh SSW 8.7 mph14.0 kmh 30.30 in1026.1 mb 0.00 in0.0 mm 0.00 in0.0 mm 0.00 in0.0 mm
04:00 PM 60.5°F15.8°C 49.4°F9.7°C 67% 4.7 mph SSW7.6 kmh SSW 8.1 mph13.0 kmh 30.30 in1026.1 mb 0.00 in0.0 mm 0.00 in0.0 mm 0.00 in0.0 mm
04:05 PM 60.3°F15.7°C 49.6°F9.8°C 68% 4.5 mph SSW7.2 kmh SSW 6.3 mph10.1 kmh 30.30 in1026.1 mb 0.00 in0.0 mm 0.00 in0.0 mm 0.00 in0.0 mm
04:10 PM 60.6°F15.9°C 49.7°F9.8°C 67% 4.0 mph SSE6.4 kmh SSE 9.2 mph14.8 kmh 30.30 in1026.1 mb 0.00 in0.0 mm 0.00 in0.0 mm 0.00 in0.0 mm
04:15 PM 60.5°F15.8°C 49.5°F9.7°C 67% 4.2 mph S6.8 kmh S 8.5 mph13.7 kmh 30.30 in1026.1 mb 0.00 in0.0 mm 0.00 in0.0 mm 0.00 in0.0 mm
04:20 PM 60.3°F15.7°C 49.6°F9.8°C 68% 4.7 mph S7.6 kmh S 9.2 mph14.8 kmh 30.30 in1026.1 mb 0.00 in0.0 mm 0.00 in0.0 mm 0.00 in0.0 mm
04:25 PM 60.0°F15.6°C 49.6°F9.8°C 69% 5.0 mph S8.0 kmh S 8.7 mph14.0 kmh 30.30 in1026.1 mb 0.00 in0.0 mm 0.00 in0.0 mm 0.00 in0.0 mm
04:30 PM 59.5°F15.3°C 49.3°F9.6°C 69% 5.8 mph S9.3 kmh S 8.5 mph13.7 kmh 30.30 in1026.1 mb 0.00 in0.0 mm 0.00 in0.0 mm 0.00 in0.0 mm
04:35 PM 59.2°F15.1°C 49.4°F9.7°C 70% 5.6 mph S9.0 kmh S 6.3 mph10.1 kmh 30.30 in1026.1 mb 0.00 in0.0 mm 0.00 in0.0 mm 0.00 in0.0 mm
04:40 PM 59.1°F15.1°C 49.3°F9.6°C 70% 4.7 mph SSE7.6 kmh SSE 6.9 mph11.1 kmh 30.30 in1026.1 mb 0.00 in0.0 mm 0.00 in0.0 mm 0.00 in0.0 mm
04:45 PM 58.7°F14.8°C 49.2°F9.6°C 71% 4.7 mph SSE7.6 kmh SSE 7.6 mph12.2 kmh 30.30 in1026.1 mb 0.00 in0.0 mm 0.00 in0.0 mm 0.00 in0.0 mm
04:50 PM 58.2°F14.6°C 49.2°F9.6°C 72% 4.7 mph SE7.6 kmh SE 7.4 mph11.9 kmh 30.30 in1026.1 mb 0.00 in0.0 mm 0.00 in0.0 mm 0.00 in0.0 mm
04:55 PM 57.8°F14.3°C 49.2°F9.6°C 73% 4.9 mph SE7.9 kmh SE 8.1 mph13.0 kmh 30.30 in1026.1 mb 0.00 in0.0 mm 0.00 in0.0 mm 0.00 in0.0 mm
05:00 PM 57.5°F14.2°C 49.3°F9.6°C 74% 5.4 mph ESE8.7 kmh ESE 8.1 mph13.0 kmh 30.30 in1026.1 mb 0.00 in0.0 mm 0.00 in0.0 mm 0.00 in0.0 mm
05:05 PM 57.2°F14.0°C 49.2°F9.6°C 75% 5.3 mph ESE8.5 kmh ESE 7.6 mph12.2 kmh 30.30 in1026.1 mb 0.00 in0.0 mm 0.00 in0.0 mm 0.00 in0.0 mm
05:10 PM 56.9°F13.8°C 49.1°F9.5°C 75% 5.1 mph E8.2 kmh E 6.9 mph11.1 kmh 30.30 in1026.1 mb 0.00 in0.0 mm 0.00 in0.0 mm 0.00 in0.0 mm
05:15 PM 56.7°F13.7°C 49.3°F9.6°C 76% 5.0 mph E8.0 kmh E 7.6 mph12.2 kmh 30.30 in1026.1 mb 0.00 in0.0 mm 0.00 in0.0 mm 0.00 in0.0 mm
05:20 PM 56.6°F13.7°C 49.2°F9.6°C 76% 4.7 mph E7.6 kmh E 6.9 mph11.1 kmh 30.30 in1026.1 mb 0.00 in0.0 mm 0.00 in0.0 mm 0.00 in0.0 mm
05:25 PM 56.5°F13.6°C 49.1°F9.5°C 76% 4.6 mph E7.4 kmh E 5.8 mph9.3 kmh 30.30 in1026.1 mb 0.00 in0.0 mm 0.00 in0.0 mm 0.00 in0.0 mm
05:30 PM 56.4°F13.6°C 49.3°F9.6°C 77% 4.3 mph E6.9 kmh E 6.3 mph10.1 kmh 30.30 in1026.1 mb 0.00 in0.0 mm 0.00 in0.0 mm 0.00 in0.0 mm
05:35 PM 56.2°F13.4°C 49.1°F9.5°C 77% 4.2 mph E6.8 kmh E 5.4 mph8.7 kmh 30.30 in1026.1 mb 0.00 in0.0 mm 0.00 in0.0 mm 0.00 in0.0 mm
05:40 PM 56.1°F13.4°C 49.0°F9.4°C 77% 4.0 mph E6.4 kmh E 5.1 mph8.2 kmh 30.30 in1026.1 mb 0.00 in0.0 mm 0.00 in0.0 mm 0.00 in0.0 mm
05:45 PM 56.1°F13.4°C 49.0°F9.4°C 77% 3.9 mph E6.3 kmh E 4.7 mph7.6 kmh 30.30 in1026.1 mb 0.00 in0.0 mm 0.00 in0.0 mm 0.00 in0.0 mm
05:50 PM 56.0°F13.3°C 49.0°F9.4°C 77% 3.6 mph E5.8 kmh E 4.3 mph6.9 kmh 30.30 in1026.1 mb 0.00 in0.0 mm 0.00 in0.0 mm 0.00 in0.0 mm
05:55 PM 55.9°F13.3°C 49.2°F9.6°C 78% 3.5 mph E5.6 kmh E 4.0 mph6.4 kmh 30.30 in1026.1 mb 0.00 in0.0 mm 0.00 in0.0 mm 0.00 in0.0 mm
06:00 PM 55.9°F13.3°C 49.2°F9.6°C 78% 3.1 mph E5.0 kmh E 4.3 mph6.9 kmh 30.30 in1026.1 mb 0.00 in0.0 mm 0.00 in0.0 mm 0.00 in0.0 mm
06:05 PM 55.9°F13.3°C 49.2°F9.6°C 78% 3.0 mph E4.8 kmh E 4.0 mph6.4 kmh 30.30 in1026.1 mb 0.00 in0.0 mm 0.00 in0.0 mm 0.00 in0.0 mm
06:10 PM 55.9°F13.3°C 49.2°F9.6°C 78% 2.5 mph ESE4.0 kmh ESE 3.6 mph5.8 kmh 30.31 in1026.4 mb 0.00 in0.0 mm 0.00 in0.0 mm 0.00 in0.0 mm
06:15 PM 55.9°F13.3°C 49.2°F9.6°C 78% 2.4 mph ESE3.9 kmh ESE 4.0 mph6.4 kmh 30.31 in1026.4 mb 0.00 in0.0 mm 0.00 in0.0 mm 0.00 in0.0 mm
06:20 PM 55.9°F13.3°C 49.2°F9.6°C 78% 2.0 mph SE3.2 kmh SE 2.9 mph4.7 kmh 30.31 in1026.4 mb 0.00 in0.0 mm 0.00 in0.0 mm 0.00 in0.0 mm
06:25 PM 55.9°F13.3°C 49.1°F9.5°C 78% 1.9 mph SE3.1 kmh SE 2.5 mph4.0 kmh 30.31 in1026.4 mb 0.00 in0.0 mm 0.00 in0.0 mm 0.00 in0.0 mm
06:30 PM 55.9°F13.3°C 49.2°F9.6°C 78% 1.3 mph S2.1 kmh S 2.0 mph3.2 kmh 30.31 in1026.4 mb 0.00 in0.0 mm 0.00 in0.0 mm 0.00 in0.0 mm
06:35 PM 55.9°F13.3°C 49.2°F9.6°C 78% 1.0 mph S1.6 kmh S 2.0 mph3.2 kmh 30.31 in1026.4 mb 0.00 in0.0 mm 0.00 in0.0 mm 0.00 in0.0 mm
06:40 PM 55.9°F13.3°C 49.1°F9.5°C 78% Calm Calm -- 30.31 in1026.4 mb 0.00 in0.0 mm 0.00 in0.0 mm 0.00 in0.0 mm
06:45 PM 55.8°F13.2°C 49.0°F9.4°C 78% Calm Calm -- 30.31 in1026.4 mb 0.00 in0.0 mm 0.00 in0.0 mm 0.00 in0.0 mm
06:50 PM 55.7°F13.2°C 49.0°F9.4°C 78% Calm Calm 2.9 mph4.7 kmh 30.31 in1026.4 mb 0.00 in0.0 mm 0.00 in0.0 mm 0.00 in0.0 mm
06:55 PM 55.5°F13.1°C 48.8°F9.3°C 78% 0.4 mph S0.6 kmh S 5.1 mph8.2 kmh 30.31 in1026.4 mb 0.00 in0.0 mm 0.00 in0.0 mm 0.00 in0.0 mm
07:00 PM 55.3°F12.9°C 48.8°F9.3°C 79% 1.8 mph S2.9 kmh S 3.6 mph5.8 kmh 30.31 in1026.4 mb 0.00 in0.0 mm 0.00 in0.0 mm 0.00 in0.0 mm
07:05 PM 55.2°F12.9°C 48.8°F9.3°C 79% 1.9 mph S3.1 kmh S 3.6 mph5.8 kmh 30.31 in1026.4 mb 0.00 in0.0 mm 0.00 in0.0 mm 0.00 in0.0 mm
07:10 PM 55.2°F12.9°C 48.8°F9.3°C 79% 2.5 mph NNE4.0 kmh NNE 4.0 mph6.4 kmh 30.32 in1026.8 mb 0.00 in0.0 mm 0.00 in0.0 mm 0.00 in0.0 mm
07:15 PM 55.2°F12.9°C 48.8°F9.3°C 79% 2.6 mph N4.2 kmh N 4.0 mph6.4 kmh 30.32 in1026.8 mb 0.00 in0.0 mm 0.00 in0.0 mm 0.00 in0.0 mm
07:20 PM 55.0°F12.8°C 48.6°F9.2°C 79% 2.9 mph NNW4.7 kmh NNW 4.0 mph6.4 kmh 30.32 in1026.8 mb 0.00 in0.0 mm 0.00 in0.0 mm 0.00 in0.0 mm
07:25 PM 55.0°F12.8°C 48.6°F9.2°C 79% 2.8 mph NNW4.5 kmh NNW 3.1 mph5.0 kmh 30.32 in1026.8 mb 0.00 in0.0 mm 0.00 in0.0 mm 0.00 in0.0 mm
07:30 PM 55.0°F12.8°C 48.6°F9.2°C 79% 2.5 mph NNW4.0 kmh NNW 3.1 mph5.0 kmh 30.32 in1026.8 mb 0.00 in0.0 mm 0.00 in0.0 mm 0.00 in0.0 mm
07:35 PM 55.0°F12.8°C 48.6°F9.2°C 79% 2.3 mph NNW3.7 kmh NNW 2.5 mph4.0 kmh 30.32 in1026.8 mb 0.00 in0.0 mm 0.00 in0.0 mm 0.00 in0.0 mm
07:40 PM 55.0°F12.8°C 48.6°F9.2°C 79% 1.8 mph NW2.9 kmh NW 2.5 mph4.0 kmh 30.32 in1026.8 mb 0.00 in0.0 mm 0.00 in0.0 mm 0.00 in0.0 mm
07:45 PM 55.0°F12.8°C 48.6°F9.2°C 79% 1.8 mph NW2.9 kmh NW 3.1 mph5.0 kmh 30.32 in1026.8 mb 0.00 in0.0 mm 0.00 in0.0 mm 0.00 in0.0 mm
07:50 PM 55.0°F12.8°C 48.6°F9.2°C 79% 1.8 mph NW2.9 kmh NW 4.0 mph6.4 kmh 30.32 in1026.8 mb 0.00 in0.0 mm 0.00 in0.0 mm 0.00 in0.0 mm
07:55 PM 54.9°F12.7°C 48.5°F9.2°C 79% 2.0 mph NNW3.2 kmh NNW 4.0 mph6.4 kmh 30.32 in1026.8 mb 0.00 in0.0 mm 0.00 in0.0 mm 0.00 in0.0 mm
08:00 PM 54.9°F12.7°C 48.5°F9.2°C 79% 2.9 mph N4.7 kmh N 3.6 mph5.8 kmh 30.32 in1026.8 mb 0.00 in0.0 mm 0.00 in0.0 mm 0.00 in0.0 mm
08:05 PM 55.0°F12.8°C 48.6°F9.2°C 79% 2.8 mph N4.5 kmh N 3.6 mph5.8 kmh 30.32 in1026.8 mb 0.00 in0.0 mm 0.00 in0.0 mm 0.00 in0.0 mm
08:10 PM 55.1°F12.8°C 48.7°F9.3°C 79% 2.5 mph N4.0 kmh N 3.6 mph5.8 kmh 30.32 in1026.8 mb 0.00 in0.0 mm 0.00 in0.0 mm 0.00 in0.0 mm
08:15 PM 55.2°F12.9°C 48.8°F9.3°C 79% 2.5 mph NNW4.0 kmh NNW 4.0 mph6.4 kmh 30.32 in1026.8 mb 0.00 in0.0 mm 0.00 in0.0 mm 0.00 in0.0 mm
08:20 PM 55.2°F12.9°C 48.8°F9.3°C 79% 2.5 mph NW4.0 kmh NW 3.6 mph5.8 kmh 30.32 in1026.8 mb 0.00 in0.0 mm 0.00 in0.0 mm 0.00 in0.0 mm
08:25 PM 55.2°F12.9°C 48.8°F9.3°C 79% 2.5 mph NW4.0 kmh NW 3.6 mph5.8 kmh 30.32 in1026.8 mb 0.00 in0.0 mm 0.00 in0.0 mm 0.00 in0.0 mm
08:30 PM 55.2°F12.9°C 48.8°F9.3°C 79% 2.5 mph WNW4.0 kmh WNW 2.9 mph4.7 kmh 30.32 in1026.8 mb 0.00 in0.0 mm 0.00 in0.0 mm 0.00 in0.0 mm
08:35 PM 55.3°F12.9°C 48.9°F9.4°C 79% 2.3 mph WNW3.7 kmh WNW 2.5 mph4.0 kmh 30.32 in1026.8 mb 0.00 in0.0 mm 0.00 in0.0 mm 0.00 in0.0 mm
08:40 PM 55.4°F13.0°C 49.0°F9.4°C 79% 1.8 mph W2.9 kmh W 1.8 mph2.9 kmh 30.32 in1026.8 mb 0.00 in0.0 mm 0.00 in0.0 mm 0.00 in0.0 mm
08:45 PM 55.4°F13.0°C 49.0°F9.4°C 79% 1.4 mph W2.3 kmh W 3.1 mph5.0 kmh 30.32 in1026.8 mb 0.00 in0.0 mm 0.00 in0.0 mm 0.00 in0.0 mm
08:50 PM 55.4°F13.0°C 49.0°F9.4°C 79% Calm Calm 4.3 mph6.9 kmh 30.32 in1026.8 mb 0.00 in0.0 mm 0.00 in0.0 mm 0.00 in0.0 mm
08:55 PM 55.4°F13.0°C 49.0°F9.4°C 79% 0.7 mph WSW1.1 kmh WSW 4.0 mph6.4 kmh 30.33 in1027.1 mb 0.00 in0.0 mm 0.00 in0.0 mm 0.00 in0.0 mm
09:00 PM 55.4°F13.0°C 49.0°F9.4°C 79% 3.1 mph WSW5.0 kmh WSW 3.6 mph5.8 kmh 30.33 in1027.1 mb 0.00 in0.0 mm 0.00 in0.0 mm 0.00 in0.0 mm
09:05 PM 55.4°F13.0°C 49.0°F9.4°C 79% 3.1 mph WSW5.0 kmh WSW 4.0 mph6.4 kmh 30.33 in1027.1 mb 0.00 in0.0 mm 0.00 in0.0 mm 0.00 in0.0 mm
09:10 PM 55.4°F13.0°C 49.0°F9.4°C 79% 2.9 mph WSW4.7 kmh WSW 3.6 mph5.8 kmh 30.32 in1026.8 mb 0.00 in0.0 mm 0.00 in0.0 mm 0.00 in0.0 mm
09:15 PM 55.5°F13.1°C 49.1°F9.5°C 79% 2.8 mph WSW4.5 kmh WSW 3.6 mph5.8 kmh 30.32 in1026.8 mb 0.00 in0.0 mm 0.00 in0.0 mm 0.00 in0.0 mm
09:20 PM 55.6°F13.1°C 49.2°F9.6°C 79% 2.5 mph WSW4.0 kmh WSW 4.0 mph6.4 kmh 30.32 in1026.8 mb 0.00 in0.0 mm 0.00 in0.0 mm 0.00 in0.0 mm
09:25 PM 55.5°F13.1°C 49.1°F9.5°C 79% 2.6 mph WSW4.2 kmh WSW 4.7 mph7.6 kmh 30.32 in1026.8 mb 0.00 in0.0 mm 0.00 in0.0 mm 0.00 in0.0 mm
09:30 PM 55.4°F13.0°C 49.0°F9.4°C 79% 3.1 mph WSW5.0 kmh WSW 4.7 mph7.6 kmh 30.32 in1026.8 mb 0.00 in0.0 mm 0.00 in0.0 mm 0.00 in0.0 mm
09:35 PM 55.4°F13.0°C 49.0°F9.4°C 79% 3.2 mph WSW5.1 kmh WSW 5.4 mph8.7 kmh 30.32 in1026.8 mb 0.00 in0.0 mm 0.00 in0.0 mm 0.00 in0.0 mm
09:40 PM 55.2°F12.9°C 48.9°F9.4°C 79% 3.6 mph WSW5.8 kmh WSW 7.6 mph12.2 kmh 30.32 in1026.8 mb 0.00 in0.0 mm 0.00 in0.0 mm 0.00 in0.0 mm
09:45 PM 55.2°F12.9°C 48.8°F9.3°C 79% 3.9 mph WSW6.3 kmh WSW 7.4 mph11.9 kmh 30.32 in1026.8 mb 0.00 in0.0 mm 0.00 in0.0 mm 0.00 in0.0 mm
09:50 PM 55.2°F12.9°C 48.5°F9.2°C 78% 5.1 mph WSW8.2 kmh WSW 6.9 mph11.1 kmh 30.32 in1026.8 mb 0.00 in0.0 mm 0.00 in0.0 mm 0.00 in0.0 mm
09:55 PM 55.2°F12.9°C 48.4°F9.1°C 78% 5.2 mph WSW8.4 kmh WSW 7.6 mph12.2 kmh 30.32 in1026.8 mb 0.00 in0.0 mm 0.00 in0.0 mm 0.00 in0.0 mm
10:00 PM 55.0°F12.8°C 48.3°F9.1°C 78% 5.4 mph WSW8.7 kmh WSW 8.1 mph13.0 kmh 30.32 in1026.8 mb 0.00 in0.0 mm 0.00 in0.0 mm 0.00 in0.0 mm
10:05 PM 54.8°F12.7°C 48.4°F9.1°C 79% 5.5 mph WSW8.9 kmh WSW 8.5 mph13.7 kmh 30.32 in1026.8 mb 0.00 in0.0 mm 0.00 in0.0 mm 0.00 in0.0 mm
10:10 PM 54.7°F12.6°C 48.3°F9.1°C 79% 5.8 mph WSW9.3 kmh WSW 8.1 mph13.0 kmh 30.32 in1026.8 mb 0.00 in0.0 mm 0.00 in0.0 mm 0.00 in0.0 mm
10:15 PM 54.6°F12.6°C 48.4°F9.1°C 80% 5.9 mph WSW9.5 kmh WSW 8.5 mph13.7 kmh 30.32 in1026.8 mb 0.00 in0.0 mm 0.00 in0.0 mm 0.00 in0.0 mm
10:20 PM 54.4°F12.4°C 48.3°F9.1°C 80% 6.3 mph WSW10.1 kmh WSW 8.1 mph13.0 kmh 30.32 in1026.8 mb 0.00 in0.0 mm 0.00 in0.0 mm 0.00 in0.0 mm
10:25 PM 54.3°F12.4°C 48.3°F9.1°C 80% 6.3 mph WSW10.1 kmh WSW 8.5 mph13.7 kmh 30.32 in1026.8 mb 0.00 in0.0 mm 0.00 in0.0 mm 0.00 in0.0 mm
10:30 PM 54.3°F12.4°C 48.2°F9.0°C 80% 6.3 mph WSW10.1 kmh WSW 6.5 mph10.5 kmh 30.32 in1026.8 mb 0.00 in0.0 mm 0.00 in0.0 mm 0.00 in0.0 mm
10:35 PM 54.1°F12.3°C 48.1°F8.9°C 80% 6.1 mph WSW9.8 kmh WSW 8.1 mph13.0 kmh 30.32 in1026.8 mb 0.00 in0.0 mm 0.00 in0.0 mm 0.00 in0.0 mm
10:40 PM 54.1°F12.3°C 48.4°F9.1°C 81% 5.4 mph WSW8.7 kmh WSW 7.6 mph12.2 kmh 30.32 in1026.8 mb 0.00 in0.0 mm 0.00 in0.0 mm 0.00 in0.0 mm
10:45 PM 54.1°F12.3°C 48.4°F9.1°C 81% 5.4 mph WSW8.7 kmh WSW 7.6 mph12.2 kmh 30.32 in1026.8 mb 0.00 in0.0 mm 0.00 in0.0 mm 0.00 in0.0 mm
10:50 PM 54.1°F12.3°C 48.4°F9.1°C 81% 5.4 mph W8.7 kmh W 7.6 mph12.2 kmh 30.32 in1026.8 mb 0.00 in0.0 mm 0.00 in0.0 mm 0.00 in0.0 mm
10:55 PM 54.1°F12.3°C 48.4°F9.1°C 81% 5.3 mph WSW8.5 kmh WSW 6.9 mph11.1 kmh 30.33 in1027.1 mb 0.00 in0.0 mm 0.00 in0.0 mm 0.00 in0.0 mm
11:00 PM 54.1°F12.3°C 48.4°F9.1°C 81% 5.1 mph WSW8.2 kmh WSW 6.3 mph10.1 kmh 30.33 in1027.1 mb 0.00 in0.0 mm 0.00 in0.0 mm 0.00 in0.0 mm
11:05 PM 54.1°F12.3°C 48.4°F9.1°C 81% 4.9 mph WSW7.9 kmh WSW 6.3 mph10.1 kmh 30.33 in1027.1 mb 0.00 in0.0 mm 0.00 in0.0 mm 0.00 in0.0 mm
11:10 PM 54.0°F12.2°C 48.3°F9.1°C 81% 4.3 mph WSW6.9 kmh WSW 6.3 mph10.1 kmh 30.33 in1027.1 mb 0.00 in0.0 mm 0.00 in0.0 mm 0.00 in0.0 mm
11:15 PM 54.0°F12.2°C 48.3°F9.1°C 81% 4.4 mph WSW7.1 kmh WSW 6.5 mph10.5 kmh 30.33 in1027.1 mb 0.00 in0.0 mm 0.00 in0.0 mm 0.00 in0.0 mm
11:20 PM 54.0°F12.2°C 48.3°F9.1°C 81% 4.7 mph WSW7.6 kmh WSW 7.4 mph11.9 kmh 30.33 in1027.1 mb 0.00 in0.0 mm 0.00 in0.0 mm 0.00 in0.0 mm
11:25 PM 53.9°F12.2°C 48.2°F9.0°C 81% 4.9 mph WSW7.9 kmh WSW 7.6 mph12.2 kmh 30.33 in1027.1 mb 0.00 in0.0 mm 0.00 in0.0 mm 0.00 in0.0 mm
11:30 PM 53.8°F12.1°C 48.1°F8.9°C 81% 5.4 mph W8.7 kmh W 5.8 mph9.3 kmh 30.33 in1027.1 mb 0.00 in0.0 mm 0.00 in0.0 mm 0.00 in0.0 mm
11:35 PM 53.8°F12.1°C 48.1°F8.9°C 81% 5.1 mph W8.2 kmh W 5.4 mph8.7 kmh 30.33 in1027.1 mb 0.00 in0.0 mm 0.00 in0.0 mm 0.00 in0.0 mm
11:40 PM 53.8°F12.1°C 48.1°F8.9°C 81% 4.0 mph W6.4 kmh W 5.4 mph8.7 kmh 30.32 in1026.8 mb 0.00 in0.0 mm 0.00 in0.0 mm 0.00 in0.0 mm
11:45 PM 53.6°F12.0°C 47.9°F8.8°C 81% 4.0 mph W6.4 kmh W 5.8 mph9.3 kmh 30.32 in1026.8 mb 0.00 in0.0 mm 0.00 in0.0 mm 0.00 in0.0 mm
11:50 PM 53.4°F11.9°C 47.8°F8.8°C 81% 4.0 mph WSW6.4 kmh WSW 5.8 mph9.3 kmh 30.32 in1026.8 mb 0.00 in0.0 mm 0.00 in0.0 mm 0.00 in0.0 mm
11:55 PM 53.4°F11.9°C 47.7°F8.7°C 81% 4.2 mph WSW6.8 kmh WSW 5.8 mph9.3 kmh 30.32 in1026.8 mb 0.00 in0.0 mm 0.00 in0.0 mm 0.00 in0.0 mm